Aiguafreda





Hora UTC 15:50
Temperatura 25.5 ºC
Sòl 15 cm 27.1 ºC
Humitat 55.2 %
Pressió 1017.2 hPa
Pluja 0.0 mm
Velocitat vent 10.9 km/h
Direcció vent SSW
Radiació solar 118.0 W/m²

Dades diàries 2019-09-20



Hora UTC (hivern +1h; estiu +2h)
Temperatura (ºC) Humitat (%) Pressió (hPa) Velocitat vent (km/h) Precipitació (mm) Radiació solar (W/m²)
Hora UTC Aire Sòl 15 cm Humitat Pressió Vel. Dir. Vel. Max Dir. Intent. màx 5 min. Rad. Sol.
00:05 16.1 15.3 87.0 1019.1 0.0 NNE 0.0 NE 0.0 0.0
00:10 16.1 15.3 86.1 1019.1 0.0 W 3.4 W 0.0 0.0
00:15 16.0 15.2 85.4 1019.1 0.0 NNE 0.0 WSW 0.0 0.0
00:20 15.9 15.2 85.6 1019.2 0.1 SW 3.4 SSW 0.0 0.0
00:25 15.9 15.2 85.5 1019.0 0.0 NNE 0.0 NW 0.0 0.0
00:30 15.9 15.2 85.5 1019.1 0.0 NNE 0.0 WNW 0.0 0.0
00:35 15.9 15.4 85.3 1019.1 0.0 NNE 0.0 SSE 0.0 0.0
00:40 16.0 15.5 85.2 1019.0 0.0 NNE 0.0 SSW 0.0 0.0
00:45 16.1 15.6 85.1 1019.1 0.1 WSW 3.4 WSW 0.0 0.0
00:50 16.1 15.6 84.2 1019.2 0.0 NNE 0.0 WSW 0.0 0.0
00:55 16.2 15.7 84.2 1019.2 0.0 NNE 0.0 WSW 0.0 0.0
01:00 16.2 15.8 83.4 1019.0 0.0 NNE 0.0 SSW 0.0 0.0
01:05 16.2 15.8 83.6 1019.0 0.0 NNE 0.0 S 0.0 0.0
01:10 16.2 15.8 83.9 1019.1 0.0 NNE 0.0 S 0.0 0.0
01:15 16.3 15.9 84.3 1019.0 0.0 NNE 0.0 WNW 0.0 0.0
01:20 16.4 16.0 84.6 1019.0 0.0 NNE 0.0 W 0.0 0.0
01:25 16.5 16.0 84.2 1019.1 0.0 NNE 0.0 SW 0.0 0.0
01:30 16.5 16.0 84.0 1018.9 0.0 NNE 0.0 SW 0.0 0.0
01:35 16.5 16.1 83.9 1018.9 0.0 NNE 0.0 WSW 0.0 0.0
01:40 16.5 16.1 84.5 1019.0 0.0 NNE 0.0 WSW 0.0 0.0
01:45 16.6 16.1 84.9 1019.1 0.0 NNE 0.0 S 0.0 0.0
01:50 16.7 16.2 85.1 1019.2 0.0 NNE 0.0 S 0.0 0.0
01:55 16.6 16.1 84.1 1019.1 0.0 NNE 0.0 SW 0.0 0.0
02:00 16.6 16.0 83.4 1019.0 0.0 NNE 0.0 WSW 0.0 0.0
02:05 16.5 15.9 83.6 1018.9 0.0 NNE 0.0 WSW 0.0 0.0
02:10 16.4 15.8 84.0 1018.9 0.0 NNE 0.0 W 0.0 0.0
02:15 16.3 15.6 84.3 1018.9 0.0 NNE 0.0 WNW 0.0 0.0
02:20 16.2 15.4 84.7 1018.9 0.0 NNE 0.0 WNW 0.0 0.0
02:25 16.0 15.2 85.3 1018.7 0.0 NNE 0.0 WNW 0.0 0.0
02:30 15.9 15.1 85.3 1018.8 0.0 NNE 0.0 WNW 0.0 0.0
02:35 15.8 14.9 85.9 1018.8 0.0 NNE 0.0 WNW 0.0 0.0
02:40 15.6 14.8 86.1 1018.7 0.0 NNE 0.0 WNW 0.0 0.0
02:45 15.5 14.7 86.6 1018.8 0.0 W 3.4 W 0.0 0.0
02:50 15.5 14.7 86.5 1018.8 0.1 WSW 3.4 WSW 0.0 0.0
02:55 15.4 14.6 86.6 1018.8 0.0 NNE 0.0 WNW 0.0 0.0
03:00 15.3 14.5 87.1 1018.8 0.0 NNE 0.0 WNW 0.0 0.0
03:05 15.2 14.4 87.7 1018.8 0.0 NNE 0.0 WNW 0.0 0.0
03:10 15.1 14.3 88.5 1018.7 0.0 NNE 0.0 NNW 0.0 0.0
03:15 15.1 14.3 89.1 1018.8 0.1 NNW 3.4 NNW 0.0 0.0
03:20 15.1 14.3 89.9 1018.7 0.1 N 3.4 NNE 0.0 0.0
03:25 15.2 14.2 90.4 1018.6 0.0 NNE 0.0 NNE 0.0 0.0
03:30 15.2 14.2 90.1 1018.7 0.0 NNE 0.0 NW 0.0 0.0
03:35 15.1 14.1 89.5 1018.7 0.0 NNE 0.0 SSE 0.0 0.0
03:40 15.1 14.1 89.6 1018.8 0.0 NNE 0.0 SSE 0.0 0.0
03:45 15.0 14.0 90.0 1018.7 0.0 NNE 0.0 W 0.0 0.0
03:50 15.0 14.0 90.2 1018.7 0.0 NNE 0.0 W 0.0 0.1
03:55 14.9 13.9 90.0 1018.7 0.0 NNE 0.0 SE 0.0 0.0
04:00 14.8 13.8 90.2 1018.7 0.0 NNE 0.0 SE 0.0 0.0
04:05 14.8 13.8 90.6 1018.8 0.0 NNE 0.0 SE 0.0 0.0
04:10 14.7 13.8 90.9 1018.8 0.0 NNE 0.0 NW 0.0 0.0
04:15 14.7 13.8 91.2 1018.7 0.0 NNE 0.0 NNE 0.0 0.0
04:20 14.6 13.7 91.4 1018.8 0.0 NNE 0.0 NNE 0.0 0.0
04:25 14.6 13.6 91.6 1018.7 0.0 NNE 0.0 N 0.0 0.0
04:30 14.6 13.6 91.7 1018.8 0.0 NNE 0.0 W 0.0 0.0
04:35 14.5 13.5 91.8 1018.7 0.0 NNE 0.0 W 0.0 0.0
04:40 14.4 13.5 92.0 1018.8 0.0 NNE 0.0 W 0.0 0.0
04:45 14.4 13.4 92.3 1018.7 0.0 NNE 0.0 W 0.0 0.0
04:50 14.3 13.3 92.5 1018.8 0.0 NNE 0.0 W 0.0 0.0
04:55 14.3 13.3 92.7 1018.7 0.0 NNE 0.0 W 0.0 0.0
05:00 14.3 13.3 92.7 1018.7 0.0 NNE 0.0 W 0.0 0.0
05:05 14.2 13.2 92.6 1018.8 0.0 NNE 0.0 W 0.0 0.0
05:10 14.1 13.2 92.7 1018.9 0.0 NNE 0.0 NE 0.0 0.0
05:15 14.1 13.1 92.9 1018.8 0.0 NNE 0.0 NNE 0.0 0.0
05:20 14.0 13.1 92.9 1018.7 0.0 NNE 0.0 NNW 0.0 0.0
05:25 14.0 13.0 92.8 1018.9 0.0 NNE 0.0 W 0.0 0.0
05:30 13.9 13.0 92.6 1018.8 0.0 NNE 0.0 W 0.0 0.0
05:35 13.8 13.0 92.8 1018.8 0.0 NNE 0.0 NW 0.0 0.0
05:40 13.9 13.0 92.7 1018.9 0.0 NNE 0.0 WNW 0.0 0.0
05:45 13.9 13.0 92.7 1018.8 0.0 NNE 0.0 S 0.0 0.0
05:50 14.0 13.2 92.6 1019.0 0.0 NNE 0.0 S 0.0 0.0
05:55 14.1 13.4 92.1 1018.9 0.0 NNE 0.0 WSW 0.0 0.0
06:00 14.2 13.4 92.1 1019.0 0.0 NNE 0.0 SW 0.0 0.0
06:05 14.3 13.6 92.3 1019.0 0.7 NNW 6.1 ESE 0.0 0.0
06:10 14.5 13.8 92.3 1019.0 0.7 WSW 6.1 NW 0.0 0.0
06:15 14.6 14.0 91.6 1019.0 0.0 NNE 0.0 SW 0.0 0.0
06:20 14.8 14.2 91.9 1019.2 0.0 S 3.4 S 0.0 0.0
06:25 15.1 14.6 92.0 1019.2 0.3 S 3.4 SSE 0.0 0.0
06:30 15.2 14.9 91.0 1019.3 0.1 SSE 3.4 SSE 0.0 0.0
06:35 15.5 15.3 90.7 1019.2 0.3 S 3.4 SW 0.0 0.0
06:40 15.8 15.6 90.8 1019.2 1.1 SSE 6.1 SSE 0.0 0.0
06:45 16.0 15.9 90.9 1019.4 1.4 N 6.1 NW 0.0 0.0
06:50 16.2 16.0 90.8 1019.4 0.8 W 6.1 ENE 0.0 0.0
06:55 16.3 16.1 90.5 1019.5 0.5 SE 6.1 SSE 0.0 0.0
07:00 16.3 16.1 90.2 1019.5 0.9 NE 8.8 ENE 0.0 0.0
07:05 16.4 16.1 90.1 1019.6 0.4 ESE 6.1 SSE 0.0 0.0
07:10 16.5 16.3 90.0 1019.7 1.9 E 8.8 NNE 0.0 0.1
07:15 16.6 16.5 89.9 1019.7 4.5 NE 11.5 ENE 0.0 0.5
07:20 16.8 16.7 89.5 1019.7 4.1 NE 11.5 NE 0.0 12.4
07:25 17.0 17.0 88.7 1019.7 4.2 NE 11.5 ENE 0.0 17.7
07:30 17.4 17.4 87.3 1019.7 3.2 NE 8.8 NNE 0.0 27.2
07:35 18.0 17.6 84.7 1019.8 5.8 NE 14.2 NE 0.0 245.2
07:40 18.2 17.8 83.4 1019.7 5.0 NE 11.5 NE 0.0 170.1
07:45 18.2 18.0 83.2 1019.9 4.9 NE 11.5 N 0.0 269.9
07:50 18.5 18.3 82.4 1019.8 4.5 NE 14.2 NE 0.0 310.8
07:55 18.6 18.5 81.6 1019.8 4.1 E 8.8 NE 0.0 233.5
08:00 18.6 18.6 81.7 1020.0 4.9 ENE 16.9 ENE 0.0 219.1
08:05 18.4 18.6 82.5 1019.8 3.8 ENE 11.5 NE 0.0 221.0
08:10 18.5 18.9 82.8 1020.0 3.8 E 8.8 NE 0.0 220.4
08:15 18.7 19.1 82.1 1020.0 1.7 E 6.1 ENE 0.0 234.9
08:20 18.9 19.5 81.3 1020.2 3.6 NNE 8.8 NNE 0.0 309.2
08:25 19.4 20.5 79.8 1020.2 3.5 NE 11.5 E 0.0 473.2
08:30 19.9 21.2 76.9 1020.2 4.3 NNE 11.5 NNE 0.0 377.0
08:35 20.1 21.0 76.5 1020.0 1.2 N 11.5 NNE 0.0 309.9
08:40 20.4 21.6 75.5 1020.0 3.9 NNE 8.8 N 0.0 374.4
08:45 20.7 22.1 74.6 1020.1 2.5 NNE 8.8 NNE 0.0 498.9
08:50 21.3 23.5 73.1 1020.0 1.6 NE 8.8 N 0.0 521.4
08:55 21.9 24.5 70.1 1019.8 1.8 NNE 8.8 NNE 0.0 525.6
09:00 22.1 24.6 68.7 1019.8 5.7 NNE 11.5 NNE 0.0 533.7
09:05 22.3 24.9 67.5 1020.0 5.6 N 14.2 NNE 0.0 535.4
09:10 22.4 25.3 66.5 1019.8 4.3 NNE 11.5 N 0.0 542.8
09:15 22.7 25.9 64.6 1019.7 5.0 N 14.2 NNE 0.0 506.9
09:20 22.9 26.4 64.0 1019.9 1.9 NNE 11.5 NNE 0.0 562.2
09:25 23.5 27.1 60.8 1019.8 3.8 NE 8.8 NNE 0.0 567.5
09:30 23.5 26.9 59.8 1019.8 6.1 NNE 11.5 NNE 0.0 477.3
09:35 23.6 27.2 58.3 1019.7 4.5 NNE 8.8 N 0.0 498.6
09:40 23.6 27.8 57.9 1019.8 3.5 NNE 6.1 ENE 0.0 361.8
09:45 24.0 28.4 56.8 1019.8 2.7 ENE 8.8 E 0.0 359.3
09:50 24.5 28.7 55.4 1019.7 2.7 SE 8.8 ESE 0.0 480.1
09:55 24.4 28.1 55.3 1019.7 2.2 SE 6.1 SSE 0.0 456.0
10:00 25.0 29.5 53.4 1019.6 0.7 WSW 6.1 WSW 0.0 426.7
10:05 25.2 29.5 52.3 1019.5 3.4 SSE 8.8 SSE 0.0 475.7
10:10 25.4 30.5 50.7 1019.6 2.4 SSW 8.8 SW 0.0 603.7
10:15 25.6 30.5 49.6 1019.5 1.7 NE 6.1 SW 0.0 390.4
10:20 25.8 31.1 48.5 1019.4 2.3 SE 8.8 SE 0.0 256.3
10:25 26.1 31.1 46.6 1019.7 5.5 S 11.5 SE 0.0 228.1
10:30 26.3 31.1 44.7 1019.4 5.5 S 14.2 SSE 0.0 402.0
10:35 26.1 30.3 44.6 1019.3 6.4 SSE 14.2 SE 0.0 302.4
10:40 25.9 29.9 44.9 1019.4 8.3 SSE 16.9 SSE 0.0 240.5
10:45 25.9 30.2 45.6 1019.3 7.9 SSE 14.2 S 0.0 287.2
10:50 26.0 30.0 45.1 1019.5 9.1 SSE 16.9 SE 0.0 148.4
10:55 26.1 30.2 45.1 1019.3 8.3 SE 14.2 SE 0.0 231.0
11:00 26.4 30.7 44.4 1019.3 9.0 SE 16.9 ESE 0.0 141.1
11:05 26.5 30.9 43.4 1019.2 7.4 SSE 16.9 SW 0.0 232.5
11:10 26.5 30.4 42.8 1019.1 6.4 SSW 14.2 SE 0.0 171.3
11:15 26.5 30.7 43.4 1019.2 9.8 SE 16.9 SE 0.0 319.0
11:20 26.5 30.6 42.6 1019.1 7.3 SE 16.9 ESE 0.0 295.5
11:25 26.5 30.9 42.6 1018.9 7.7 SSE 14.2 S 0.0 291.8
11:30 26.5 30.7 42.8 1018.9 8.1 SSE 16.9 SSE 0.0 520.3
11:35 26.5 30.7 42.9 1018.9 8.5 SSE 14.2 S 0.0 649.8
11:40 26.3 31.1 43.5 1018.9 6.5 S 14.2 S 0.0 692.3
11:45 26.6 31.4 43.4 1018.8 6.1 S 14.2 SSE 0.0 630.6
11:50 26.8 31.3 43.2 1018.8 9.5 SSE 19.6 SSE 0.0 555.1
11:55 26.6 31.2 44.1 1018.7 7.4 S 14.2 SSE 0.0 528.4
12:00 27.0 31.5 43.2 1018.7 7.5 SE 16.9 SSE 0.0 486.6
12:05 27.0 31.6 42.4 1018.6 6.6 SSW 16.9 SW 0.0 416.4
12:10 27.1 31.5 42.5 1018.7 6.9 SSW 14.2 SSW 0.0 381.6
12:15 27.3 31.7 41.7 1018.5 5.5 SW 14.2 S 0.0 479.2
12:20 27.3 31.5 42.2 1018.4 9.6 S 16.9 SSE 0.0 488.5
12:25 27.3 31.4 42.2 1018.5 7.7 SSE 16.9 SW 0.0 487.1
12:30 27.0 31.1 42.7 1018.2 9.9 SSE 19.6 SSE 0.0 474.2
12:35 26.9 31.4 43.5 1018.3 7.5 S 16.9 S 0.0 492.1
12:40 27.2 31.7 42.6 1018.3 6.4 SSW 14.2 SSW 0.0 607.7
12:45 27.2 31.7 42.4 1018.1 10.0 SSW 19.6 SW 0.0 542.8
12:50 27.3 31.3 42.5 1018.2 8.1 SSW 16.9 SSE 0.0 336.1
12:55 27.3 30.6 42.9 1018.2 6.4 SSE 14.2 SE 0.0 335.5
13:00 27.0 30.8 43.3 1018.1 8.2 SSE 16.9 SSE 0.0 570.3
13:05 27.1 31.1 43.3 1018.1 9.6 S 16.9 SE 0.0 511.3
13:10 27.3 31.3 43.0 1018.0 8.2 S 19.6 SE 0.0 532.7
13:15 27.3 31.3 42.5 1018.1 9.9 SSW 16.9 SSE 0.0 581.9
13:20 27.2 31.4 43.0 1017.9 9.1 SW 16.9 SW 0.0 565.3
13:25 27.4 31.4 42.2 1017.7 9.5 SW 16.9 SW 0.0 490.5
13:30 27.5 31.8 42.3 1017.8 5.1 SSE 11.5 SSE 0.0 556.9
13:35 27.5 31.7 42.7 1017.7 8.9 S 19.6 SSE 0.0 587.7
13:40 27.3 31.6 43.6 1017.6 7.5 SSW 14.2 S 0.0 635.2
13:45 27.6 32.0 42.8 1017.6 6.7 S 14.2 S 0.0 628.1
13:50 27.3 31.4 44.3 1017.7 9.4 S 16.9 S 0.0 499.0
13:55 27.1 31.9 44.6 1017.7 4.1 S 11.5 SSE 0.0 507.9
14:00 27.6 31.7 44.6 1017.6 7.6 SSW 14.2 SW 0.0 478.4
14:05 27.5 31.8 45.0 1017.7 7.3 SSW 16.9 SSE 0.0 500.9
14:10 27.4 31.4 45.9 1017.5 6.6 S 14.2 S 0.0 536.4
14:15 27.3 31.5 46.2 1017.5 5.1 SSE 14.2 SSE 0.0 529.9
14:20 27.8 31.9 45.5 1017.4 6.5 S 14.2 SE 0.0 512.5
14:25 27.7 31.6 45.4 1017.4 7.4 SSW 14.2 SW 0.0 477.4
14:30 27.7 31.7 44.8 1017.3 7.3 S 16.9 SE 0.0 464.9
14:35 27.6 31.3 45.6 1017.2 7.7 S 14.2 SSE 0.0 430.1
14:40 27.3 31.5 47.3 1017.2 7.9 S 16.9 S 0.0 391.3
14:45 27.4 31.2 46.7 1017.2 7.6 SSW 16.9 S 0.0 357.4
14:50 27.2 30.9 47.5 1017.0 8.1 SSW 16.9 SSW 0.0 346.2
14:55 27.2 30.6 48.0 1017.0 8.4 S 16.9 SW 0.0 343.9
15:00 27.0 30.3 48.8 1016.7 8.4 SSE 16.9 S 0.0 313.2
15:05 27.0 30.2 48.9 1017.0 8.1 SSW 16.9 SSW 0.0 300.4
15:10 27.0 29.8 49.4 1017.0 10.7 SSW 19.6 S 0.0 275.6
15:15 26.7 29.4 50.3 1017.1 10.1 SSW 19.6 WSW 0.0 324.7
15:20 26.5 29.0 50.8 1017.0 9.6 SSW 16.9 SSE 0.0 216.0
15:25 26.3 28.6 51.7 1016.9 12.9 SSW 22.3 SW 0.0 207.0
15:30 26.1 28.2 52.8 1017.1 11.1 SSW 25.0 SSW 0.0 233.6
15:35 26.1 28.2 53.0 1017.0 12.7 SSW 25.0 SSW 0.0 227.9
15:40 25.8 27.5 54.0 1017.2 15.7 SSW 25.0 SSW 0.0 180.9
15:45 25.5 27.1 55.0 1017.1 12.5 SW 27.7 SW 0.0 149.7
15:50 25.5 27.1 55.2 1017.2 10.9 SSW 25.0 SW 0.0 118.0
Màxima 27.9 32.0 92.9 1020.2 15.7 SSW 27.7 SW 0.0 692.3
Mínima 13.8 13.0 41.7 1016.7
Total 0.0